Waukesha, WI

12:58 PM CDT on August 29, 2015 (GMT -0500)
Singing Hills Subdivision | | Change Station
CLOSE
Current Station
Personal Weather Station
Location: Waukesha, WI
Elevation: 930 ft
Nearby Weather Stations

Elev 930 ft 43.03 °N, 88.19 °W | Updated 20 seconds ago

Overcast
Overcast
63.2 °F
Feels Like 63.2 °F
N
1.0
Wind Variable Wind from SSE
Gusts 8.0 mph

Today
High -- | Low -- °F
--% Chance of Precip.
Yesterday
High -- | Low -- °F
Precip. -- in
6:13 AM 7:33 PM
Full, 100% visible
Pressure 30.05 in
Visibility 5.0 miles
Clouds Overcast 700 ft
Dew Point 63 °F
Humidity 99%
Rainfall 1.07 in
Snow Depth Not available.
UV 16.0 out of 12
Pollen 1.40 out of 12
Air Quality Not available.
Flu Activity Not available.
METAR KUES 291745Z 13004KT 5SM BR OVC007 16/16 A3005
Pressure 30.05 in
Visibility 5.0 miles
Clouds Overcast 700 ft
Dew Point 63 °F
Humidity 99%
Rainfall 1.07 in
Snow Depth Not available.
UV 16.0 out of 12
Pollen 1.40 out of 12
Air Quality Not available.
Flu Activity Not available.
METAR KUES 291745Z 13004KT 5SM BR OVC007 16/16 A3005

10-Day Weather Forecast

×

Almanac

Astronomy

Aug. 29, 2015 Rise Set
Actual Time
Civil Twilight
Nautical Twilight
Astronomical Twilight
Moon
Length of Visible Light
Length of Day
Tomorrow will be .
, % of the Moon is Illuminated

Today's Extremes

State Highs State Lows

Community

WunderPhotos

Upload Photos

1,850,743 photos uploaded!

WunderBlogs® & News

Nearby

Air Quality

  Air Quality AQ Index Pollutant
Not available.

Snow Depth

Station Depth Elevation

Earthquake Activity

City Distance Mag. Time & Date
Minimum magnitude displayed is 2.5.

Coastal Water Temperatures

Place Temperature

Stations

Nearby Weather Stations

Station Location Temp. Windchill Dew Point Humidity Wind Precip. Elev Updated Type